Time,TemperatureF,DewpointF,PressureIn,WindDirection,WindDirectionDegrees,WindSpeedMPH,WindSpeedGustMPH,Humidity,HourlyPrecipIn,Conditions,Clouds,dailyrainin,SolarRadiationWatts/m^2,SoftwareType,DateUTC
2013-03-31 00:02:00,48.0,36.0,-100.00,SSE,151,0.0,3.0,62,0.00,,,0.00,0.000000,,2013-03-31 07:02:00,
2013-03-31 00:12:00,48.0,36.0,-100.00,SSE,151,0.0,3.0,62,0.00,,,0.00,0.000000,,2013-03-31 07:12:00,
2013-03-31 00:43:00,45.0,35.0,-100.00,SE,133,0.0,3.0,67,0.00,,,0.00,0.000000,,2013-03-31 07:43:00,
2013-03-31 00:53:00,45.0,35.0,-100.00,SE,133,0.0,3.0,67,0.00,,,0.00,0.000000,,2013-03-31 07:53:00,
2013-03-31 01:02:00,45.0,35.0,-100.00,SE,133,0.0,3.0,67,0.00,,,0.00,0.000000,,2013-03-31 08:02:00,
2013-03-31 01:12:00,45.0,35.0,-100.00,SE,133,0.0,3.0,67,0.00,,,0.00,0.000000,,2013-03-31 08:12:00,
2013-03-31 01:42:00,44.0,34.0,-100.00,SSE,168,0.0,4.0,67,0.00,,,0.00,0.000000,,2013-03-31 08:42:00,
2013-03-31 01:52:00,44.0,34.0,-100.00,SSE,168,0.0,4.0,67,0.00,,,0.00,0.000000,,2013-03-31 08:52:00,
2013-03-31 02:01:00,44.0,34.0,-100.00,SSE,168,0.0,4.0,67,0.00,,,0.00,0.000000,,2013-03-31 09:01:00,
2013-03-31 02:12:00,44.0,34.0,-100.00,SSE,168,0.0,4.0,67,0.00,,,0.00,0.000000,,2013-03-31 09:12:00,
2013-03-31 02:43:00,43.0,31.0,-100.00,SSE,165,0.0,5.0,63,0.00,,,0.00,0.000000,,2013-03-31 09:43:00,
2013-03-31 02:53:00,43.0,31.0,-100.00,SSE,165,0.0,5.0,63,0.00,,,0.00,0.000000,,2013-03-31 09:53:00,
2013-03-31 03:03:00,43.0,31.0,-100.00,SSE,165,0.0,5.0,63,0.00,,,0.00,0.000000,,2013-03-31 10:03:00,
2013-03-31 03:12:00,43.0,31.0,-100.00,SSE,165,0.0,5.0,63,0.00,,,0.00,0.000000,,2013-03-31 10:12:00,
2013-03-31 03:42:00,41.0,29.0,-100.00,SSE,160,0.0,4.0,62,0.00,,,0.00,0.000000,,2013-03-31 10:42:00,
2013-03-31 03:53:00,41.0,29.0,-100.00,SSE,160,0.0,4.0,62,0.00,,,0.00,0.000000,,2013-03-31 10:53:00,
2013-03-31 04:02:00,41.0,29.0,-100.00,SSE,160,0.0,4.0,62,0.00,,,0.00,0.000000,,2013-03-31 11:02:00,
2013-03-31 04:12:00,41.0,29.0,-100.00,SSE,160,0.0,4.0,62,0.00,,,0.00,0.000000,,2013-03-31 11:12:00,
2013-03-31 04:42:00,43.0,30.0,-100.00,SSE,167,0.0,4.0,59,0.00,,,0.00,1.000000,,2013-03-31 11:42:00,
2013-03-31 04:52:00,43.0,30.0,-100.00,SSE,167,0.0,4.0,59,0.00,,,0.00,1.000000,,2013-03-31 11:52:00,
2013-03-31 05:02:00,43.0,30.0,-100.00,SSE,167,0.0,4.0,59,0.00,,,0.00,1.000000,,2013-03-31 12:02:00,
2013-03-31 05:12:00,43.0,30.0,-100.00,SSE,167,0.0,4.0,59,0.00,,,0.00,1.000000,,2013-03-31 12:12:00,
2013-03-31 05:42:00,42.0,28.0,-100.00,South,169,0.0,5.0,57,0.00,,,-99.99,0.000000,,2013-03-31 12:42:00,
2013-03-31 05:52:00,42.0,28.0,-100.00,South,169,0.0,5.0,57,0.00,,,-99.99,0.000000,,2013-03-31 12:52:00,
2013-03-31 06:02:00,42.0,28.0,-100.00,South,169,0.0,5.0,57,0.00,,,-99.99,0.000000,,2013-03-31 13:02:00,
2013-03-31 06:12:00,42.0,28.0,-100.00,South,169,0.0,5.0,57,0.00,,,-99.99,0.000000,,2013-03-31 13:12:00,
2013-03-31 06:42:00,42.0,31.0,-100.00,SSE,167,0.0,4.0,64,0.00,,,0.00,0.000000,,2013-03-31 13:42:00,
2013-03-31 06:53:00,42.0,31.0,-100.00,SSE,167,0.0,4.0,64,0.00,,,0.00,0.000000,,2013-03-31 13:53:00,
2013-03-31 07:02:00,42.0,31.0,-100.00,SSE,167,0.0,4.0,64,0.00,,,0.00,0.000000,,2013-03-31 14:02:00,
2013-03-31 07:11:00,42.0,31.0,-100.00,SSE,167,0.0,4.0,64,0.00,,,0.00,0.000000,,2013-03-31 14:11:00,
2013-03-31 07:43:00,42.0,30.0,-100.00,SSE,163,0.0,5.0,61,0.00,,,0.00,22.000000,,2013-03-31 14:43:00,
2013-03-31 07:52:00,42.0,30.0,-100.00,SSE,163,0.0,5.0,61,0.00,,,0.00,22.000000,,2013-03-31 14:52:00,
2013-03-31 08:02:00,42.0,30.0,-100.00,SSE,163,0.0,5.0,61,0.00,,,0.00,22.000000,,2013-03-31 15:02:00,
2013-03-31 08:12:00,42.0,30.0,-100.00,SSE,163,0.0,5.0,61,0.00,,,0.00,22.000000,,2013-03-31 15:12:00,
2013-03-31 08:43:00,50.0,34.0,-100.00,SW,227,2.0,5.0,53,0.00,,,0.00,59.000000,,2013-03-31 15:43:00,
2013-03-31 08:53:00,50.0,34.0,-100.00,SW,227,2.0,5.0,53,0.00,,,0.00,59.000000,,2013-03-31 15:53:00,
2013-03-31 09:02:00,50.0,34.0,-100.00,SW,227,2.0,5.0,53,0.00,,,0.00,59.000000,,2013-03-31 16:02:00,
2013-03-31 09:43:00,53.0,33.0,-100.00,WSW,252,3.0,8.0,46,0.00,,,0.00,463.000000,,2013-03-31 16:43:00,
2013-03-31 09:53:00,53.0,33.0,-100.00,WSW,252,3.0,8.0,46,0.00,,,0.00,463.000000,,2013-03-31 16:53:00,
2013-03-31 10:02:00,53.0,33.0,-100.00,WSW,252,3.0,8.0,46,0.00,,,0.00,463.000000,,2013-03-31 17:02:00,
2013-03-31 10:12:00,53.0,33.0,-100.00,WSW,252,3.0,8.0,46,0.00,,,0.00,463.000000,,2013-03-31 17:12:00,
2013-03-31 10:43:00,57.0,34.0,-100.00,WSW,251,3.0,9.0,42,0.00,,,0.00,653.000000,,2013-03-31 17:43:00,
2013-03-31 10:52:00,57.0,34.0,-100.00,WSW,251,3.0,9.0,42,0.00,,,0.00,653.000000,,2013-03-31 17:52:00,
2013-03-31 11:02:00,57.0,34.0,-100.00,WSW,251,3.0,9.0,42,0.00,,,0.00,653.000000,,2013-03-31 18:02:00,
2013-03-31 11:12:00,57.0,34.0,-100.00,WSW,251,3.0,9.0,42,0.00,,,0.00,653.000000,,2013-03-31 18:12:00,
2013-03-31 11:42:00,59.0,33.0,-100.00,WNW,296,3.0,10.0,38,0.00,,,0.00,819.000000,,2013-03-31 18:42:00,
2013-03-31 11:53:00,59.0,33.0,-100.00,WNW,296,3.0,10.0,38,0.00,,,0.00,819.000000,,2013-03-31 18:53:00,
2013-03-31 12:02:00,59.0,33.0,-100.00,WNW,296,3.0,10.0,38,0.00,,,0.00,819.000000,,2013-03-31 19:02:00,
2013-03-31 12:12:00,59.0,33.0,-100.00,WNW,296,3.0,10.0,38,0.00,,,0.00,819.000000,,2013-03-31 19:12:00,
2013-03-31 12:43:00,62.0,35.0,-100.00,WSW,255,3.0,11.0,36,0.00,,,0.00,934.000000,,2013-03-31 19:43:00,
2013-03-31 12:54:00,62.0,35.0,-100.00,WSW,255,3.0,11.0,36,0.00,,,0.00,934.000000,,2013-03-31 19:54:00,
2013-03-31 13:02:00,62.0,35.0,-100.00,WSW,255,3.0,11.0,36,0.00,,,0.00,934.000000,,2013-03-31 20:02:00,
2013-03-31 13:12:00,62.0,35.0,-100.00,WSW,255,3.0,11.0,36,0.00,,,0.00,934.000000,,2013-03-31 20:12:00,
2013-03-31 13:43:00,63.0,35.0,-100.00,WSW,248,3.0,10.0,35,0.00,,,0.00,955.000000,,2013-03-31 20:43:00,
2013-03-31 13:52:00,63.0,35.0,-100.00,WSW,248,3.0,10.0,35,0.00,,,0.00,955.000000,,2013-03-31 20:52:00,
2013-03-31 14:02:00,63.0,35.0,-100.00,WSW,248,3.0,10.0,35,0.00,,,0.00,955.000000,,2013-03-31 21:02:00,
2013-03-31 14:12:00,63.0,35.0,-100.00,WSW,248,3.0,10.0,35,0.00,,,0.00,955.000000,,2013-03-31 21:12:00,
2013-03-31 14:43:00,64.0,36.0,-100.00,WSW,246,4.0,12.0,35,0.00,,,0.00,962.000000,,2013-03-31 21:43:00,
2013-03-31 14:53:00,64.0,36.0,-100.00,WSW,246,4.0,12.0,35,0.00,,,0.00,962.000000,,2013-03-31 21:53:00,
2013-03-31 15:03:00,64.0,36.0,-100.00,WSW,246,4.0,12.0,35,0.00,,,0.00,962.000000,,2013-03-31 22:03:00,
2013-03-31 15:12:00,64.0,36.0,-100.00,WSW,246,4.0,12.0,35,0.00,,,0.00,962.000000,,2013-03-31 22:12:00,
2013-03-31 15:43:00,64.0,36.0,-100.00,WSW,249,4.0,12.0,35,0.00,,,0.00,844.000000,,2013-03-31 22:43:00,
2013-03-31 15:53:00,64.0,36.0,-100.00,WSW,249,4.0,12.0,35,0.00,,,0.00,844.000000,,2013-03-31 22:53:00,
2013-03-31 16:02:00,64.0,36.0,-100.00,WSW,249,4.0,12.0,35,0.00,,,0.00,844.000000,,2013-03-31 23:02:00,
2013-03-31 16:12:00,64.0,36.0,-100.00,WSW,249,4.0,12.0,35,0.00,,,0.00,844.000000,,2013-03-31 23:12:00,
2013-03-31 16:43:00,64.0,37.0,-100.00,ENE,60,3.0,12.0,36,0.00,,,0.00,690.000000,,2013-03-31 23:43:00,
2013-03-31 16:53:00,64.0,37.0,-100.00,ENE,60,3.0,12.0,36,0.00,,,0.00,690.000000,,2013-03-31 23:53:00,
2013-03-31 17:02:00,64.0,37.0,-100.00,ENE,60,3.0,12.0,36,0.00,,,0.00,690.000000,,2013-04-01 00:02:00,
2013-03-31 17:12:00,64.0,37.0,-100.00,ENE,60,3.0,12.0,36,0.00,,,0.00,690.000000,,2013-04-01 00:12:00,
2013-03-31 17:43:00,62.0,35.0,-100.00,WSW,241,5.0,11.0,36,0.00,,,0.00,503.000000,,2013-04-01 00:43:00,
2013-03-31 17:53:00,62.0,35.0,-100.00,WSW,241,5.0,11.0,36,0.00,,,0.00,503.000000,,2013-04-01 00:53:00,
2013-03-31 18:02:00,62.0,35.0,-100.00,WSW,241,5.0,11.0,36,0.00,,,0.00,503.000000,,2013-04-01 01:02:00,
2013-03-31 18:12:00,62.0,35.0,-100.00,WSW,241,5.0,11.0,36,0.00,,,0.00,503.000000,,2013-04-01 01:12:00,
2013-03-31 18:43:00,58.0,33.0,-100.00,WSW,241,5.0,11.0,39,0.00,,,0.00,99.000000,,2013-04-01 01:43:00,
2013-03-31 18:53:00,58.0,33.0,-100.00,WSW,241,5.0,11.0,39,0.00,,,0.00,99.000000,,2013-04-01 01:53:00,
2013-03-31 19:02:00,58.0,33.0,-100.00,WSW,241,5.0,11.0,39,0.00,,,0.00,99.000000,,2013-04-01 02:02:00,
2013-03-31 19:12:00,58.0,33.0,-100.00,WSW,241,5.0,11.0,39,0.00,,,0.00,99.000000,,2013-04-01 02:12:00,
2013-03-31 19:43:00,52.0,37.0,-100.00,South,171,0.0,9.0,57,0.00,,,0.00,18.000000,,2013-04-01 02:43:00,
2013-03-31 19:53:00,52.0,37.0,-100.00,South,171,0.0,9.0,57,0.00,,,0.00,18.000000,,2013-04-01 02:53:00,
2013-03-31 20:02:00,52.0,37.0,-100.00,South,171,0.0,9.0,57,0.00,,,0.00,18.000000,,2013-04-01 03:02:00,
2013-03-31 20:12:00,52.0,37.0,-100.00,South,171,0.0,9.0,57,0.00,,,0.00,18.000000,,2013-04-01 03:12:00,
2013-03-31 20:43:00,51.0,35.0,-100.00,ESE,104,0.0,0.0,54,0.00,,,0.00,0.000000,,2013-04-01 03:43:00,
2013-03-31 20:53:00,51.0,35.0,-100.00,ESE,104,0.0,0.0,54,0.00,,,0.00,0.000000,,2013-04-01 03:53:00,
2013-03-31 21:02:00,51.0,35.0,-100.00,ESE,104,0.0,0.0,54,0.00,,,0.00,0.000000,,2013-04-01 04:02:00,
2013-03-31 21:12:00,51.0,35.0,-100.00,ESE,104,0.0,0.0,54,0.00,,,0.00,0.000000,,2013-04-01 04:12:00,
2013-03-31 21:43:00,49.0,34.0,-100.00,SE,135,0.0,3.0,57,0.00,,,0.00,0.000000,,2013-04-01 04:43:00,
2013-03-31 21:53:00,49.0,34.0,-100.00,SE,135,0.0,3.0,57,0.00,,,0.00,0.000000,,2013-04-01 04:53:00,
2013-03-31 22:02:00,49.0,34.0,-100.00,SE,135,0.0,3.0,57,0.00,,,0.00,0.000000,,2013-04-01 05:02:00,
2013-03-31 22:12:00,49.0,34.0,-100.00,SE,135,0.0,3.0,57,0.00,,,0.00,0.000000,,2013-04-01 05:12:00,
2013-03-31 22:43:00,48.0,32.0,-100.00,SE,134,0.0,3.0,54,0.00,,,0.00,1.000000,,2013-04-01 05:43:00,
2013-03-31 22:53:00,48.0,32.0,-100.00,SE,134,0.0,3.0,54,0.00,,,0.00,1.000000,,2013-04-01 05:53:00,
2013-03-31 23:02:00,48.0,32.0,-100.00,SE,134,0.0,3.0,54,0.00,,,0.00,1.000000,,2013-04-01 06:02:00,
2013-03-31 23:12:00,48.0,32.0,-100.00,SE,134,0.0,3.0,54,0.00,,,0.00,1.000000,,2013-04-01 06:12:00,
2013-03-31 23:43:00,49.0,34.0,-100.00,SE,125,0.0,0.0,55,0.00,,,0.00,0.000000,,2013-04-01 06:43:00,
2013-03-31 23:52:00,49.0,34.0,-100.00,SE,125,0.0,0.0,55,0.00,,,0.00,0.000000,,2013-04-01 06:52:00,